Time;durP1;ratioP1;P1;durP2;ratioP2;P2;SDS_P1;SDS_P2;PMS_P1;PMS_P2;Temp;Humidity;BMP_temperature;BMP_pressure;BME280_temperature;BME280_humidity;BME280_pressure;Samples;Min_cycle;Max_cycle;Signal;HPM_P1;HPM_P2
2023/10/24 00:00:03;;;;;;;25.98;11.13;;;;;;;-144.30;78.94;85320.91;5033264;28;20296;-85
2023/10/24 00:02:31;;;;;;;33.30;11.53;;;;;;;-144.30;79.51;85305.00;5030684;28;20205;-79
2023/10/24 00:04:59;;;;;;;28.40;10.88;;;;;;;-144.30;80.03;85316.91;5030875;28;20623;-79
2023/10/24 00:07:26;;;;;;;27.73;11.10;;;;;;;-144.30;80.92;85334.81;5030947;28;20201;-79
2023/10/24 00:09:53;;;;;;;33.40;11.55;;;;;;;-144.30;81.58;85348.72;5030391;28;20220;-79
2023/10/24 00:12:20;;;;;;;37.60;12.77;;;;;;;-144.30;82.15;85338.78;5030350;28;20291;-79
2023/10/24 00:14:46;;;;;;;34.57;12.60;;;;;;;-144.30;82.44;85213.53;5030757;28;20196;-78
2023/10/24 00:17:13;;;;;;;31.67;12.18;;;;;;;-144.30;82.80;85261.25;5030379;28;20201;-80
2023/10/24 00:19:42;;;;;;;32.72;12.15;;;;;;;-144.30;83.80;85388.47;5030351;28;20205;-79
2023/10/24 00:22:09;;;;;;;28.80;12.80;;;;;;;-144.30;84.04;85364.63;5030520;28;20607;-79
2023/10/24 00:24:36;;;;;;;28.15;11.55;;;;;;;-144.30;84.46;85356.69;5030593;28;20232;-79
2023/10/24 00:27:03;;;;;;;36.60;11.75;;;;;;;-144.30;84.50;85382.53;5030439;28;20193;-79
2023/10/24 00:29:30;;;;;;;22.88;11.38;;;;;;;-144.30;85.00;85368.59;5030576;28;20231;-79
2023/10/24 00:31:57;;;;;;;28.40;12.47;;;;;;;-144.30;85.38;85400.41;5030467;28;20233;-79
2023/10/24 00:34:24;;;;;;;31.07;13.00;;;;;;;-144.30;85.23;85366.63;5030878;28;20237;-78
2023/10/24 00:36:52;;;;;;;34.03;13.13;;;;;;;-144.30;85.30;85392.47;5031236;28;20220;-79
2023/10/24 00:39:19;;;;;;;34.53;12.80;;;;;;;-144.30;85.39;85380.53;5031006;28;20197;-79
2023/10/24 00:41:46;;;;;;;32.37;12.07;;;;;;;-144.30;85.14;85308.97;5030954;28;20211;-80
2023/10/24 00:44:13;;;;;;;36.40;11.77;;;;;;;-144.30;85.22;85380.53;5032615;28;20203;-79
2023/10/24 00:46:40;;;;;;;36.53;12.15;;;;;;;-144.30;85.15;85346.72;5035264;28;20591;-79
2023/10/24 00:49:09;;;;;;;24.40;11.67;;;;;;;-144.30;85.23;85293.06;5034616;28;20811;-78
2023/10/24 00:51:36;;;;;;;31.27;11.40;;;;;;;-144.30;85.25;85392.47;5034267;28;20695;-79
2023/10/24 00:54:05;;;;;;;40.77;11.77;;;;;;;-144.30;84.75;85420.28;5034074;28;20193;-79
2023/10/24 00:56:32;;;;;;;31.53;11.77;;;;;;;-144.30;84.85;85404.38;5033777;28;20201;-79
2023/10/24 00:59:02;;;;;;;33.87;12.43;;;;;;;-144.30;85.17;85418.31;5033970;28;20301;-79
2023/10/24 01:01:30;;;;;;;31.60;11.33;;;;;;;-144.30;85.57;85356.69;5034190;28;20673;-79
2023/10/24 01:03:59;;;;;;;31.33;13.10;;;;;;;-144.30;85.31;85382.53;5034525;28;20577;-79
2023/10/24 01:06:26;;;;;;;31.07;11.67;;;;;;;-144.30;85.31;85424.25;5034430;28;20670;-80
2023/10/24 01:08:53;;;;;;;32.50;11.53;;;;;;;-144.30;85.52;85410.34;5033871;28;20593;-79
2023/10/24 01:11:23;;;;;;;30.40;12.00;;;;;;;-144.30;85.23;85438.19;5034477;28;20223;-85
2023/10/24 01:13:50;;;;;;;25.27;10.40;;;;;;;-144.30;84.34;85698.63;5035246;28;20216;-86
2023/10/24 01:16:17;;;;;;;28.23;10.57;;;;;;;-144.30;84.34;85428.25;5035015;28;20194;-85
2023/10/24 01:18:44;;;;;;;26.10;10.93;;;;;;;-144.30;84.31;85291.06;5034367;28;20275;-85
2023/10/24 01:21:11;;;;;;;30.83;11.67;;;;;;;-144.30;84.19;85378.53;5033292;28;20201;-79
2023/10/24 01:23:40;;;;;;;28.47;10.13;;;;;;;-144.30;84.05;85360.66;5033409;28;20606;-79
2023/10/24 01:26:08;;;;;;;28.83;10.37;;;;;;;-144.30;83.63;85434.22;5033736;28;20198;-85
2023/10/24 01:28:36;;;;;;;28.50;10.27;;;;;;;-144.30;83.53;85404.38;5034607;28;20296;-85
2023/10/24 01:31:03;;;;;;;23.77;10.00;;;;;;;-144.30;83.20;85412.34;5034523;28;20232;-85
2023/10/24 01:33:30;;;;;;;30.50;10.70;;;;;;;-144.30;83.23;85368.59;5034650;28;20261;-86
2023/10/24 01:35:57;;;;;;;27.90;11.27;;;;;;;-144.30;83.25;85338.78;5034382;28;20232;-86
2023/10/24 01:38:24;;;;;;;31.30;11.30;;;;;;;-144.30;83.10;85392.47;5033886;28;20197;-87
2023/10/24 01:40:52;;;;;;;32.23;10.77;;;;;;;-144.30;83.30;85392.47;5033891;28;20199;-87
2023/10/24 01:43:19;;;;;;;30.00;12.03;;;;;;;-144.30;83.18;85360.66;5034511;28;20205;-86
2023/10/24 01:45:46;;;;;;;31.17;10.93;;;;;;;-144.30;83.17;85360.66;5033575;28;20197;-86
2023/10/24 01:48:13;;;;;;;28.03;10.77;;;;;;;-144.30;83.30;85396.44;5034007;28;20208;-87
2023/10/24 01:50:39;;;;;;;27.40;10.87;;;;;;;-144.30;83.13;85356.69;5034247;28;20225;-87
2023/10/24 01:53:06;;;;;;;23.97;10.47;;;;;;;-144.30;83.22;85342.75;5034512;28;20570;-86
2023/10/24 01:55:33;;;;;;;20.33;9.97;;;;;;;-144.30;83.39;85320.91;5032389;28;20196;-86
2023/10/24 01:58:02;;;;;;;27.23;9.90;;;;;;;-144.30;83.42;85646.91;5033382;28;20240;-85
2023/10/24 02:00:28;;;;;;;27.80;10.57;;;;;;;-144.30;83.83;85217.53;5033540;28;20207;-85
2023/10/24 02:02:55;;;;;;;28.30;10.60;;;;;;;-144.30;84.08;85440.16;5034224;28;20218;-86
2023/10/24 02:05:22;;;;;;;30.33;11.73;;;;;;;-144.30;84.18;85390.47;5033859;28;20204;-83
2023/10/24 02:07:49;;;;;;;23.17;10.43;;;;;;;-144.30;85.25;85969.00;5033586;28;20197;-85
2023/10/24 02:10:17;;;;;;;25.93;11.37;;;;;;;-144.30;85.73;85464.03;5033478;28;20228;-86
2023/10/24 02:12:43;;;;;;;21.00;11.17;;;;;;;-144.30;86.09;85448.13;5033142;28;20688;-84
2023/10/24 02:15:12;;;;;;;28.40;11.33;;;;;;;-144.30;85.69;86034.63;5033582;28;20684;-85
2023/10/24 02:17:41;;;;;;;24.23;10.07;;;;;;;-144.30;85.67;85249.34;5032990;28;20653;-85
2023/10/24 02:20:09;;;;;;;29.23;11.00;;;;;;;-144.30;86.20;85370.59;5033203;28;20204;-85
2023/10/24 02:22:36;;;;;;;28.67;11.23;;;;;;;-144.30;86.27;85487.88;5033590;28;20189;-85
2023/10/24 02:25:03;;;;;;;23.83;11.00;;;;;;;-144.30;86.70;85479.94;5032764;28;20682;-85
2023/10/24 02:27:31;;;;;;;36.00;12.03;;;;;;;-144.30;87.11;85495.84;5033737;28;20197;-86
2023/10/24 02:29:58;;;;;;;28.53;9.80;;;;;;;-144.30;86.95;85485.88;5033764;28;20757;-85
2023/10/24 02:32:26;;;;;;;20.30;10.00;;;;;;;-144.30;86.74;85402.41;5032698;28;20201;-86
2023/10/24 02:34:53;;;;;;;26.30;9.73;;;;;;;-144.30;86.41;85436.19;5032152;28;20229;-80
2023/10/24 02:37:20;;;;;;;24.83;9.50;;;;;;;-144.30;86.41;85483.91;5032081;28;20572;-81
2023/10/24 02:39:47;;;;;;;18.20;8.73;;;;;;;-144.30;86.58;85473.97;5031812;28;20204;-79
2023/10/24 02:42:14;;;;;;;21.67;9.63;;;;;;;-144.30;86.31;85473.97;5031764;28;20553;-79
2023/10/24 02:44:41;;;;;;;27.27;9.67;;;;;;;-144.30;86.29;85479.94;5031597;28;20205;-78
2023/10/24 02:47:08;;;;;;;24.83;9.90;;;;;;;-144.30;86.25;85456.06;5031863;28;20666;-79
2023/10/24 02:49:36;;;;;;;30.10;10.73;;;;;;;-144.30;85.81;85485.88;5032064;28;20197;-79
2023/10/24 02:52:03;;;;;;;18.87;9.20;;;;;;;-144.30;85.45;85308.97;5031504;28;20212;-79
2023/10/24 02:54:30;;;;;;;25.53;9.90;;;;;;;-144.30;84.92;85471.97;5032384;28;20208;-78
2023/10/24 02:56:57;;;;;;;16.77;8.97;;;;;;;-144.30;84.21;85436.19;5031785;28;20201;-79
2023/10/24 02:59:24;;;;;;;23.37;8.77;;;;;;;-144.30;83.55;86024.69;5031747;28;20240;-79
2023/10/24 03:01:50;;;;;;;25.87;10.27;;;;;;;-144.30;83.41;85444.16;5031661;28;20216;-79
2023/10/24 03:04:17;;;;;;;15.77;9.07;;;;;;;-144.30;83.38;85336.78;5031676;28;20620;-79
2023/10/24 03:06:46;;;;;;;26.80;9.30;;;;;;;-144.30;83.15;85342.75;5033119;28;20286;-77
2023/10/24 03:09:12;;;;;;;25.20;9.17;;;;;;;-144.30;82.66;85456.06;5031229;28;20201;-79
2023/10/24 03:11:39;;;;;;;18.40;9.03;;;;;;;-144.30;82.62;85432.22;5031604;28;20221;-79
2023/10/24 03:14:06;;;;;;;23.63;8.87;;;;;;;-144.30;82.66;85430.22;5031886;28;20284;-82
2023/10/24 03:16:34;;;;;;;20.73;8.50;;;;;;;-144.30;82.71;85402.41;5031970;28;20201;-81
2023/10/24 03:19:04;;;;;;;31.67;9.80;;;;;;;-144.30;82.44;85434.22;5032244;28;20197;-82
2023/10/24 03:21:32;;;;;;;18.93;8.17;;;;;;;-144.30;82.18;85420.28;5031287;28;20193;-81
2023/10/24 03:24:00;;;;;;;26.00;10.00;;;;;;;-144.30;82.00;85388.47;5032012;28;20201;-81
2023/10/24 03:26:27;;;;;;;30.37;8.87;;;;;;;-144.30;81.98;85436.19;5031462;28;20580;-80
2023/10/24 03:28:54;;;;;;;24.47;9.60;;;;;;;-144.30;82.21;85326.84;5031086;28;20201;-78
2023/10/24 03:31:21;;;;;;;22.27;8.87;;;;;;;-144.30;81.74;84941.22;5030569;28;20244;-77
2023/10/24 03:33:49;;;;;;;26.60;9.30;;;;;;;-144.30;81.51;85456.06;5030637;28;20209;-79
2023/10/24 03:36:17;;;;;;;20.27;8.70;;;;;;;-144.30;81.28;85454.09;5030450;28;20812;-79
2023/10/24 03:38:44;;;;;;;24.67;9.43;;;;;;;-144.30;81.50;85312.94;5030498;28;20663;-79
2023/10/24 03:41:13;;;;;;;21.77;9.73;;;;;;;-144.30;82.59;85495.84;5030531;28;20194;-80
2023/10/24 03:43:47;;;;;;;24.27;8.83;;;;;;;-144.30;83.70;85473.97;5030693;28;20228;-82
2023/10/24 03:46:15;;;;;;;28.33;9.40;;;;;;;-144.30;83.69;85464.03;5031660;28;20196;-88
2023/10/24 03:48:42;;;;;;;15.37;8.77;;;;;;;-144.30;83.75;85507.75;5032633;28;20212;-86
2023/10/24 03:51:09;;;;;;;25.40;9.50;;;;;;;-144.30;83.78;85068.44;5031241;28;20320;-84
2023/10/24 03:53:36;;;;;;;21.57;9.83;;;;;;;-144.30;83.49;85356.69;5031435;28;20577;-81
2023/10/24 03:56:08;;;;;;;26.93;9.27;;;;;;;-144.30;83.32;85505.78;5035006;28;20190;-90
2023/10/24 03:58:36;;;;;;;22.10;8.93;;;;;;;-144.30;83.63;85519.69;5029258;28;20684;-85
2023/10/24 04:01:05;;;;;;;26.77;8.17;;;;;;;-144.30;83.76;85382.53;5047817;28;20734;-85
2023/10/24 04:03:32;;;;;;;22.87;9.47;;;;;;;-144.30;83.29;85515.72;5052615;28;20200;-84
2023/10/24 04:05:59;;;;;;;26.23;9.10;;;;;;;-144.30;82.95;85501.78;5052061;28;20197;-85
2023/10/24 04:08:28;;;;;;;16.20;8.33;;;;;;;-144.30;82.92;85468.00;5051342;28;20238;-82
2023/10/24 04:10:55;;;;;;;24.00;8.67;;;;;;;-144.30;82.83;85507.75;5051117;28;20255;-82
2023/10/24 04:13:22;;;;;;;25.50;9.13;;;;;;;-144.30;82.60;85515.72;5051019;28;20283;-82
2023/10/24 04:15:57;;;;;;;23.63;9.70;;;;;;;-144.30;82.78;85553.47;5050491;28;20192;-80
2023/10/24 04:18:28;;;;;;;23.70;9.87;;;;;;;-144.30;83.26;85559.44;5050827;28;20188;-82
2023/10/24 04:20:54;;;;;;;20.80;9.60;;;;;;;-144.30;84.00;85533.59;5054143;28;20192;-78
2023/10/24 04:23:21;;;;;;;36.07;10.93;;;;;;;-144.30;84.40;85583.31;5048020;28;20681;-81
2023/10/24 04:25:48;;;;;;;27.07;9.33;;;;;;;-144.30;84.13;85545.53;5034919;28;20284;-90
2023/10/24 04:28:15;;;;;;;25.27;9.27;;;;;;;-144.30;83.93;85537.59;5035458;28;20579;-78
2023/10/24 04:30:42;;;;;;;28.10;9.23;;;;;;;-144.30;83.52;85585.28;5033861;28;20224;-79
2023/10/24 04:33:11;;;;;;;24.73;9.07;;;;;;;-144.30;83.86;85591.25;5034082;28;20212;-84
2023/10/24 04:35:47;;;;;;;23.17;8.30;;;;;;;-144.30;83.70;85559.44;5055434;28;20232;-80
2023/10/24 04:38:26;;;;;;;18.27;7.80;;;;;;;-144.30;83.75;85581.31;5049674;28;20643;-87
2023/10/24 04:40:54;;;;;;;26.23;9.90;;;;;;;-144.30;83.78;85567.41;5035597;28;20197;-76
2023/10/24 04:43:22;;;;;;;31.60;8.57;;;;;;;-144.30;83.85;85509.75;5034427;28;20211;-81
2023/10/24 04:45:52;;;;;;;27.57;10.00;;;;;;;-144.30;83.74;85583.31;5036190;28;20202;-83
2023/10/24 04:48:20;;;;;;;24.43;8.70;;;;;;;-144.30;83.71;85551.50;5036005;28;20219;-82
2023/10/24 04:50:47;;;;;;;24.47;9.17;;;;;;;-144.30;83.20;85563.41;5035138;28;20221;-83
2023/10/24 04:53:14;;;;;;;39.00;9.53;;;;;;;-144.30;83.15;85555.47;5035290;28;20590;-82
2023/10/24 04:55:42;;;;;;;24.47;9.87;;;;;;;-144.30;82.56;85521.69;5035372;28;20205;-83
2023/10/24 04:58:10;;;;;;;19.67;8.63;;;;;;;-144.30;82.28;85555.47;5035160;28;20198;-81
2023/10/24 05:00:37;;;;;;;26.97;9.73;;;;;;;-144.30;81.95;85547.53;5035052;28;20189;-85
2023/10/24 05:03:05;;;;;;;30.10;9.97;;;;;;;-144.30;81.94;85525.66;5033332;28;20208;-82
2023/10/24 05:05:33;;;;;;;35.30;9.87;;;;;;;-144.30;81.22;85485.88;5053018;28;20589;-79
2023/10/24 05:08:00;;;;;;;18.63;8.37;;;;;;;-144.30;81.35;85555.47;5030445;28;20212;-79
2023/10/24 05:10:27;;;;;;;28.53;9.33;;;;;;;-144.30;81.04;85466.00;5054276;28;20308;-80
2023/10/24 05:12:54;;;;;;;26.40;9.47;;;;;;;-144.30;80.21;85503.78;5054280;28;20208;-80
2023/10/24 05:15:21;;;;;;;25.87;9.07;;;;;;;-144.30;79.26;85452.09;5042486;28;20290;-79
2023/10/24 05:17:48;;;;;;;26.60;8.90;;;;;;;-144.30;78.41;85468.00;5036455;28;20619;-81
2023/10/24 05:20:17;;;;;;;25.40;9.20;;;;;;;-144.30;77.77;85396.44;5034636;28;20213;-83
2023/10/24 05:22:45;;;;;;;35.90;9.50;;;;;;;-144.30;76.91;86028.66;5034848;28;20542;-83
2023/10/24 05:25:12;;;;;;;30.57;10.00;;;;;;;-144.30;76.70;85330.84;5034644;28;20197;-80
2023/10/24 05:27:40;;;;;;;23.42;9.05;;;;;;;-144.30;76.02;85348.72;5034138;28;20202;-80
2023/10/24 05:30:10;;;;;;;19.95;9.45;;;;;;;-144.30;75.23;85314.94;5034179;28;20292;-81
2023/10/24 05:32:37;;;;;;;22.85;9.52;;;;;;;-144.30;74.14;85291.06;5033939;28;20269;-78
2023/10/24 05:35:04;;;;;;;33.85;10.35;;;;;;;-144.30;71.93;85249.34;5034642;28;20645;-80
2023/10/24 05:37:32;;;;;;;33.55;10.35;;;;;;;-144.30;69.30;85147.94;5033706;28;20216;-80
2023/10/24 05:40:01;;;;;;;23.88;10.18;;;;;;;-144.30;66.69;84986.94;5033889;28;20201;-81
2023/10/24 05:42:27;;;;;;;39.05;9.35;;;;;;;-144.30;63.62;84919.34;5036243;28;20216;-80
2023/10/24 05:44:54;;;;;;;28.10;9.05;;;;;;;-144.30;59.88;84812.03;5053277;28;20201;-80
2023/10/24 05:47:21;;;;;;;32.33;9.57;;;;;;;-144.30;57.62;84716.63;5028759;28;20193;-79
2023/10/24 05:49:49;;;;;;;27.50;7.93;;;;;;;-144.30;54.61;84521.84;5037798;28;20201;-81
2023/10/24 05:52:16;;;;;;;23.02;8.23;;;;;;;-144.30;52.02;84498.00;5032690;28;20289;-81
2023/10/24 05:54:43;;;;;;;26.50;8.13;;;;;;;-144.30;50.16;84396.66;5043333;28;20527;-81
2023/10/24 05:57:12;;;;;;;30.73;9.10;;;;;;;-144.30;48.25;84259.50;5046889;28;20608;-80
2023/10/24 05:59:38;;;;;;;20.02;7.82;;;;;;;-144.30;46.96;84211.81;5044091;28;20225;-84
2023/10/24 06:02:06;;;;;;;27.63;8.55;;;;;;;-144.30;45.64;84090.59;5046402;28;20275;-80
2023/10/24 06:04:35;;;;;;;25.55;8.23;;;;;;;-144.30;44.88;84060.78;5053541;28;20208;-81
2023/10/24 06:07:02;;;;;;;24.20;7.72;;;;;;;-144.30;44.21;83989.25;5052298;28;20205;-76
2023/10/24 06:09:29;;;;;;;21.45;7.45;;;;;;;-144.30;43.26;83919.72;5053124;28;20196;-77
2023/10/24 06:11:56;;;;;;;25.95;7.72;;;;;;;-144.30;42.13;83788.56;5052649;28;20227;-77
2023/10/24 06:14:24;;;;;;;27.38;8.23;;;;;;;-144.30;41.06;83683.25;5052980;28;20197;-79
2023/10/24 06:16:52;;;;;;;28.40;8.45;;;;;;;-144.30;40.24;83623.66;5052871;28;20201;-75
2023/10/24 06:19:19;;;;;;;30.48;8.52;;;;;;;-144.30;39.73;83603.78;5052842;28;20610;-78
2023/10/24 06:21:45;;;;;;;32.33;8.95;;;;;;;-144.30;39.29;83524.31;5053224;28;20200;-82
2023/10/24 06:24:12;;;;;;;29.13;8.88;;;;;;;-144.30;38.64;83482.56;5052930;28;20836;-80
2023/10/24 06:26:39;;;;;;;29.67;8.68;;;;;;;-144.30;37.87;83361.38;5053516;28;20281;-79
2023/10/24 06:29:06;;;;;;;35.45;8.32;;;;;;;-144.30;37.27;83315.69;5053117;28;20197;-78
2023/10/24 06:31:34;;;;;;;28.90;13.40;;;;;;;-144.30;36.32;83176.63;5052912;28;20238;-80
2023/10/24 06:34:03;;;;;;;36.60;8.98;;;;;;;-144.30;36.24;83055.44;5052697;28;20586;-79
2023/10/24 06:36:30;;;;;;;42.95;8.80;;;;;;;-144.30;36.21;83220.31;5012898;28;20209;-77
2023/10/24 06:38:57;;;;;;;27.65;8.57;;;;;;;-144.30;35.85;83138.88;5012463;28;20229;-78
2023/10/24 06:41:24;;;;;;;18.15;7.68;;;;;;;-144.30;36.00;83113.03;5011835;28;20226;-79
2023/10/24 06:43:51;;;;;;;19.80;8.05;;;;;;;-144.30;37.30;83458.72;5012787;28;20264;-78
2023/10/24 06:46:18;;;;;;;25.13;7.63;;;;;;;-144.30;39.00;83647.50;5012579;28;20209;-77
2023/10/24 06:48:46;;;;;;;31.23;9.30;;;;;;;-144.30;40.64;83788.56;5012608;28;20208;-80
2023/10/24 06:51:13;;;;;;;32.50;8.93;;;;;;;-144.30;42.16;84060.78;5012770;28;20237;-75
2023/10/24 06:53:40;;;;;;;26.10;9.32;;;;;;;-144.30;44.06;84144.25;5012395;28;20594;-75
2023/10/24 06:56:07;;;;;;;20.50;7.90;;;;;;;-144.30;45.80;84265.47;5012581;28;20666;-77
2023/10/24 06:58:34;;;;;;;17.45;8.98;;;;;;;-144.30;47.07;84297.28;5013171;28;20202;-79
2023/10/24 07:01:01;;;;;;;22.92;7.75;;;;;;;-144.30;47.94;84406.59;5012341;28;20205;-78
2023/10/24 07:03:28;;;;;;;27.85;8.13;;;;;;;-144.30;49.02;84458.25;5012138;28;20209;-79
2023/10/24 07:05:56;;;;;;;20.58;8.73;;;;;;;-144.30;50.58;84549.69;5012117;28;20206;-78
2023/10/24 07:08:23;;;;;;;29.02;7.63;;;;;;;-144.30;51.13;84543.72;4999186;28;20319;-77
2023/10/24 07:10:50;;;;;;;28.23;7.88;;;;;;;-144.30;51.45;84585.44;4991517;28;20202;-77
2023/10/24 07:13:18;;;;;;;26.65;8.50;;;;;;;-144.30;51.88;84539.75;4991874;28;20285;-77
2023/10/24 07:15:45;;;;;;;16.80;7.90;;;;;;;-144.30;52.05;85283.13;4992462;28;20256;-77
2023/10/24 07:18:12;;;;;;;24.60;8.95;;;;;;;-144.30;52.25;84490.06;4992181;28;20206;-78
2023/10/24 07:20:43;;;;;;;27.30;8.50;;;;;;;-144.30;52.63;84525.81;4992089;28;20289;-78
2023/10/24 07:23:11;;;;;;;26.60;9.20;;;;;;;-144.30;52.88;84627.19;4991613;28;20205;-78
2023/10/24 07:25:38;;;;;;;31.63;8.43;;;;;;;-144.30;53.02;84621.22;4991400;28;20211;-78
2023/10/24 07:28:05;;;;;;;22.90;7.88;;;;;;;-144.30;52.96;84601.34;4991869;28;20303;-81
2023/10/24 07:30:32;;;;;;;27.65;10.57;;;;;;;-144.30;53.03;84609.31;4991634;28;20209;-78
2023/10/24 07:32:59;;;;;;;21.45;9.80;;;;;;;-144.30;53.22;84589.41;4991452;28;20731;-77
2023/10/24 07:35:26;;;;;;;30.95;9.32;;;;;;;-144.30;53.12;84593.41;5014093;28;20595;-80
2023/10/24 07:37:53;;;;;;;26.88;9.88;;;;;;;-144.30;53.34;84597.38;5030697;28;20237;-79
2023/10/24 07:40:21;;;;;;;22.75;8.55;;;;;;;-144.30;53.47;84569.53;5030651;28;20203;-80
2023/10/24 07:42:48;;;;;;;26.95;8.65;;;;;;;-144.30;53.43;84599.34;5030845;28;20199;-80
2023/10/24 07:45:15;;;;;;;29.73;9.32;;;;;;;-144.30;53.46;84466.19;5030604;28;20223;-80
2023/10/24 07:47:46;;;;;;;26.73;9.50;;;;;;;-144.30;53.25;84601.34;5030302;28;20193;-80
2023/10/24 07:50:13;;;;;;;26.00;9.20;;;;;;;-144.30;52.98;84581.47;5030733;28;20208;-76
2023/10/24 07:52:40;;;;;;;22.85;8.00;;;;;;;-144.30;52.98;84573.53;5031344;28;20217;-79
2023/10/24 07:55:08;;;;;;;24.95;8.80;;;;;;;-144.30;53.56;84617.25;5029891;28;20189;-78
2023/10/24 07:57:36;;;;;;;24.50;8.30;;;;;;;-144.30;53.70;84605.31;5029620;28;20212;-79
2023/10/24 08:00:03;;;;;;;28.77;7.97;;;;;;;-144.30;53.92;84601.34;5030056;28;20208;-78
2023/10/24 08:02:33;;;;;;;24.63;7.68;;;;;;;-144.30;53.92;84639.13;5030490;28;20367;-77
2023/10/24 08:05:00;;;;;;;31.13;7.32;;;;;;;-144.30;53.58;84569.53;5030455;28;20576;-79
2023/10/24 08:07:28;;;;;;;32.08;8.15;;;;;;;-144.30;53.08;84573.53;5030328;28;20679;-77
2023/10/24 08:09:54;;;;;;;27.23;7.38;;;;;;;-144.30;53.24;84625.19;5030049;28;20220;-80
2023/10/24 08:12:23;;;;;;;31.00;8.40;;;;;;;-144.30;52.54;84569.53;5030758;28;20225;-76
2023/10/24 08:14:51;;;;;;;26.33;7.88;;;;;;;-144.30;52.71;84426.47;5030599;28;20219;-77
2023/10/24 08:17:18;;;;;;;23.17;7.60;;;;;;;-144.30;52.87;84521.84;5030496;28;20201;-74
2023/10/24 08:19:45;;;;;;;22.13;7.40;;;;;;;-144.30;50.88;85199.63;5029817;28;20212;-76
2023/10/24 08:22:12;;;;;;;22.77;6.28;;;;;;;-144.30;50.43;84470.19;5029757;28;20197;-78
2023/10/24 08:24:39;;;;;;;15.77;6.57;;;;;;;-144.30;50.30;84521.84;5030398;28;20201;-75
2023/10/24 08:27:06;;;;;;;18.08;6.72;;;;;;;-144.30;49.97;84492.03;5030536;28;20212;-77
2023/10/24 08:29:32;;;;;;;15.50;6.40;;;;;;;-144.30;49.56;84456.25;5030403;28;20240;-75
2023/10/24 08:32:01;;;;;;;22.65;5.90;;;;;;;-144.30;49.90;84478.13;5030098;28;20221;-74
2023/10/24 08:34:28;;;;;;;20.75;6.53;;;;;;;-144.30;49.12;84450.31;5030343;28;20731;-74
2023/10/24 08:36:55;;;;;;;40.53;14.98;;;;;;;-144.30;49.56;84458.25;5029969;28;20677;-76
2023/10/24 08:39:23;;;;;;;20.48;8.65;;;;;;;-144.30;48.95;84454.28;5030462;28;20564;-78
2023/10/24 08:41:53;;;;;;;28.70;7.03;;;;;;;-144.30;49.04;84438.38;5029846;28;20247;-77
2023/10/24 08:44:22;;;;;;;29.15;15.15;;;;;;;-144.30;48.59;84434.41;5029544;28;20190;-78
2023/10/24 08:46:50;;;;;;;22.88;9.52;;;;;;;-144.30;48.57;84420.50;5029924;28;20591;-81
2023/10/24 08:49:19;;;;;;;21.05;7.93;;;;;;;-144.30;48.48;84432.41;5024570;28;20205;-81
2023/10/24 08:51:47;;;;;;;17.52;7.68;;;;;;;-144.30;48.17;84507.94;5030396;28;20643;-82
2023/10/24 08:54:16;;;;;;;19.52;6.07;;;;;;;-144.30;48.05;84350.94;5029305;28;20350;-80
2023/10/24 08:56:45;;;;;;;16.00;6.20;;;;;;;-144.30;47.69;84249.59;5025953;28;20232;-79
2023/10/24 08:59:15;;;;;;;22.73;7.40;;;;;;;-144.30;47.79;84370.81;5032687;28;20220;-80
2023/10/24 09:01:42;;;;;;;32.90;17.10;;;;;;;-144.30;47.71;84356.91;5032690;28;20205;-81
2023/10/24 09:04:09;;;;;;;24.17;9.45;;;;;;;-144.30;47.62;84386.72;5032825;28;20193;-81
2023/10/24 09:06:38;;;;;;;35.20;6.75;;;;;;;-144.30;47.46;84346.97;5036911;28;20201;-83
2023/10/24 09:09:06;;;;;;;23.42;6.57;;;;;;;-144.30;47.73;84303.25;5037568;28;20201;-81
2023/10/24 09:11:52;;;;;;;20.15;8.02;;;;;;;-144.30;47.23;84311.19;5036957;28;20193;-80
2023/10/24 09:14:19;;;;;;;23.15;7.15;;;;;;;-144.30;46.95;84327.09;5036418;28;20251;-81
2023/10/24 09:16:52;;;;;;;17.92;6.97;;;;;;;-144.30;46.56;84255.53;5036792;28;20654;-81
2023/10/24 09:19:19;;;;;;;32.38;15.07;;;;;;;-144.30;46.64;84337.03;5036184;28;20292;-79
2023/10/24 09:21:48;;;;;;;24.98;8.55;;;;;;;-144.30;46.78;84311.19;5036402;28;20203;-78
2023/10/24 09:24:16;;;;;;;28.67;9.10;;;;;;;-144.30;47.32;84319.13;5035881;28;20202;-79
2023/10/24 09:26:50;;;;;;;20.45;7.30;;;;;;;-144.30;46.48;84285.34;5036945;28;20265;-83
2023/10/24 09:29:18;;;;;;;25.55;10.57;;;;;;;-144.30;46.52;84277.41;5037867;28;20591;-83
2023/10/24 09:31:46;;;;;;;20.45;8.40;;;;;;;-144.30;46.21;84231.69;5037230;28;20243;-83
2023/10/24 09:34:13;;;;;;;42.22;20.25;;;;;;;-144.30;46.05;84315.16;5036928;28;20208;-83
2023/10/24 09:36:40;;;;;;;22.85;8.30;;;;;;;-144.30;46.24;83983.28;5035502;28;20280;-83
2023/10/24 09:39:10;;;;;;;19.52;7.57;;;;;;;-144.30;45.99;84267.47;5036148;28;20262;-83
2023/10/24 09:41:39;;;;;;;24.15;10.40;;;;;;;-144.30;45.57;84265.47;5037098;28;20201;-83
2023/10/24 09:44:07;;;;;;;20.73;6.55;;;;;;;-144.30;44.82;84660.97;5036594;28;20261;-84
2023/10/24 09:46:36;;;;;;;22.17;7.15;;;;;;;-144.30;44.96;84235.66;5036337;28;20197;-82
2023/10/24 09:49:04;;;;;;;27.05;7.28;;;;;;;-144.30;45.60;84225.75;5036455;28;20204;-81
2023/10/24 09:51:32;;;;;;;20.40;6.72;;;;;;;-144.30;45.26;84128.34;5036077;28;20950;-82
2023/10/24 09:54:00;;;;;;;28.23;8.15;;;;;;;-144.30;45.39;84100.53;5036060;28;20229;-83
2023/10/24 09:56:28;;;;;;;17.33;7.60;;;;;;;-144.30;44.95;84235.66;5036881;28;20555;-83
2023/10/24 09:58:56;;;;;;;22.95;6.78;;;;;;;-144.30;44.37;84714.63;5037272;28;20202;-84
2023/10/24 10:01:23;;;;;;;25.13;7.68;;;;;;;-144.30;45.63;83814.41;5036589;28;20189;-85
2023/10/24 10:03:51;;;;;;;18.20;9.15;;;;;;;-144.30;44.30;84104.50;5038140;28;20292;-85
2023/10/24 10:06:18;;;;;;;23.55;8.50;;;;;;;-144.30;44.38;84195.94;5037937;28;20296;-84
2023/10/24 10:08:47;;;;;;;16.17;6.63;;;;;;;-144.30;44.34;84217.78;5037574;28;20288;-85
2023/10/24 10:11:14;;;;;;;24.10;7.93;;;;;;;-144.30;44.40;84160.16;5036613;28;20197;-84
2023/10/24 10:13:51;;;;;;;23.27;9.15;;;;;;;-144.30;43.88;84029.00;5037037;28;20229;-84
2023/10/24 10:16:30;;;;;;;16.10;5.85;;;;;;;-144.30;43.27;84176.06;5037073;28;20218;-84
2023/10/24 10:19:20;;;;;;;16.05;6.82;;;;;;;-144.30;43.07;84025.03;5038198;28;20196;-84
2023/10/24 10:22:01;;;;;;;21.75;6.03;;;;;;;-144.30;42.42;84098.56;5037794;28;20200;-86
2023/10/24 10:24:54;;;;;;;28.95;13.50;;;;;;;-144.30;42.67;84100.53;5039242;28;20257;-82
2023/10/24 10:27:32;;;;;;;25.63;7.72;;;;;;;-144.30;42.50;84056.81;5037011;28;20193;-82
2023/10/24 10:30:13;;;;;;;15.80;6.35;;;;;;;-144.30;42.27;84056.81;5033749;28;20204;-80
2023/10/24 10:32:49;;;;;;;27.63;7.00;;;;;;;-144.30;42.12;84052.84;5037401;28;20771;-82
2023/10/24 10:35:17;;;;;;;22.00;6.55;;;;;;;-144.30;42.44;84048.88;5054548;28;20220;-83
2023/10/24 10:38:02;;;;;;;19.02;6.05;;;;;;;-144.30;42.39;84042.91;5056524;28;20204;-83
2023/10/24 10:40:29;;;;;;;23.85;6.70;;;;;;;-144.30;41.87;83866.06;5056797;28;20268;-84
2023/10/24 10:43:30;;;;;;;21.75;6.63;;;;;;;-144.30;41.03;84046.88;5024415;28;20212;-83
2023/10/24 10:46:16;;;;;;;15.07;5.25;;;;;;;-144.30;40.72;83939.59;5056906;28;20211;-82
2023/10/24 10:48:43;;;;;;;18.85;6.05;;;;;;;-144.30;40.52;83901.81;5057128;28;20192;-83
2023/10/24 10:51:13;;;;;;;14.90;5.57;;;;;;;-144.30;40.77;84001.19;5056635;28;20249;-83
2023/10/24 10:53:49;;;;;;;19.60;5.68;;;;;;;-144.30;40.62;84011.13;5056461;28;20236;-82
2023/10/24 10:56:21;;;;;;;16.77;5.40;;;;;;;-144.30;41.00;83899.84;5056808;28;20288;-84
2023/10/24 10:59:14;;;;;;;19.85;5.45;;;;;;;-144.30;40.45;83742.88;5056471;28;20659;-84
2023/10/24 11:01:54;;;;;;;13.95;4.70;;;;;;;-144.30;40.04;83969.38;5055537;28;20200;-84
2023/10/24 11:04:21;;;;;;;22.23;5.55;;;;;;;-144.30;40.11;83750.81;5054400;28;20283;-83
2023/10/24 11:06:52;;;;;;;14.07;7.18;;;;;;;-144.30;40.49;83941.56;5055061;28;20267;-84
2023/10/24 11:09:20;;;;;;;25.63;6.03;;;;;;;-144.30;40.29;83981.31;5056514;28;20284;-84
2023/10/24 11:11:47;;;;;;;14.57;4.90;;;;;;;-144.30;40.04;83945.53;5038731;28;20251;-81